Stations météo

réclame
Mon MeteoGroup
Wasserkuppe, Allemagne (10544): Température de l'air & dewpoint: 12.10.2017 16:00:00 - 18.10.2017 16:00:00 (CEST)Wasserkuppe, Allemagne (10544): Température de l'air 5cm & Température de l'air -5cm: 12.10.2017 16:00:00 - 18.10.2017 16:00:00 (CEST)Wasserkuppe, Allemagne (10544): Température de l'air -20cm & Température de l'air -100cm: 12.10.2017 16:00:00 - 18.10.2017 16:00:00 (CEST)Wasserkuppe, Allemagne (10544): Vitesse du vent & gusts: 12.10.2017 16:00:00 - 18.10.2017 16:00:00 (CEST)Wasserkuppe, Allemagne (10544): Direction du vent: 12.10.2017 16:00:00 - 18.10.2017 16:00:00 (CEST)Wasserkuppe, Allemagne (10544): visibility: 12.10.2017 16:00:00 - 18.10.2017 16:00:00 (CEST)Wasserkuppe, Allemagne (10544): Ensoleillement: 12.10.2017 16:00:00 - 18.10.2017 16:00:00 (CEST)Wasserkuppe, Allemagne (10544): Quantités de précipitations: 12.10.2017 16:00:00 - 18.10.2017 16:00:00 (CEST)
Date & Time tt [°C] td [°C] tt 5cm [°C] tt -5cm [°C] tt -20cm [°C] tt -100cm [°C] ff [km/h] ff [knt] fx [km/h] fx [knt] dd vv [km] sd [min] rr [mm]
18.10.2017 16:00:00 17,2 7,2 16,5 12,3 9,7 9,7 16 9 27 15 WSW 55 60 0,0
18.10.2017 15:00:00 18,1 6,0 17,2 11,7 9,7 9,7 19 10 31 17 WSW 55 60 0,0
18.10.2017 14:00:00 17,7 7,4 17,5 10,6 9,7 9,7 18 10 28 15 SW 55 60 0,0
18.10.2017 13:00:00 17,0 5,9 16,9 9,4 9,8 9,7 21 12 28 15 SW 55 59 0,0
18.10.2017 12:00:00 14,7 6,5 13,5 8,7 9,8 9,7 20 11 28 15 SSW 45 56 0,0
18.10.2017 11:00:00 14,6 6,5 12,6 8,2 9,9 9,7 21 12 28 15 SW 35 60 0,0
18.10.2017 10:00:00 14,2 7,1 12,2 7,6 10,0 9,7 20 11 25 13 SW 30 60 0,0
18.10.2017 09:00:00 11,1 6,4 9,8 7,4 10,1 9,7 16 8 19 11 SSW 25 2 0,0
18.10.2017 08:00:00 10,9 4,8 8,1 7,5 10,2 9,7 16 9 23 12 SSW 25 0 0,0
18.10.2017 07:00:00 10,6 5,8 7,9 7,6 10,3 9,7 15 8 21 12 SSW 25 0 0,0
18.10.2017 06:00:00 10,6 5,4 8,7 7,6 10,4 9,7 20 11 22 12 SSW 25 0 0,0
18.10.2017 05:00:00 10,5 6,7 7,1 7,8 10,5 9,7 11 6 16 9 S 25 0 0,0
18.10.2017 04:00:00 10,2 6,4 6,0 8,1 10,6 9,7 12 6 13 7 S 35 0 0,0
18.10.2017 03:00:00 10,5 6,0 5,9 8,5 10,6 9,7 12 6 14 7 S 40 0 0,0
18.10.2017 02:00:00 10,7 7,1 5,5 8,9 10,7 9,7 11 6 17 9 S 40 0 0,0
18.10.2017 01:00:00 10,7 6,3 6,8 9,3 10,7 9,7 15 8 18 10 SSW 45 0 0,0
18.10.2017 00:00:00 10,8 7,0 7,0 9,8 10,8 9,7 14 7 16 9 SSW 45 0 0,0
17.10.2017 23:00:00 10,8 6,0 7,9 10,3 10,7 9,7 15 8 18 10 SSW 45 0 0,0
17.10.2017 22:00:00 11,7 5,7 8,9 11,0 10,7 9,7 15 8 20 11 SW 45 0 0,0
17.10.2017 21:00:00 11,4 6,7 8,1 11,7 10,6 9,7 15 8 19 10 SW 45 0 0,0
17.10.2017 20:00:00 11,4 6,3 8,6 12,5 10,5 9,7 16 9 19 10 SW 45 0 0,0
17.10.2017 19:00:00 12,1 6,2 10,2 13,4 10,3 9,7 14 8 18 10 SSW 45 0 0,0
17.10.2017 18:00:00 14,3 9,8 12,0 14,1 10,1 9,7 11 6 15 8 S 45 38 0,0
17.10.2017 17:00:00 17,2 9,8 15,1 14,3 10,0 9,7 13 7 21 11 S 45 51 0,0
17.10.2017 16:00:00 19,0 9,5 19,4 14,0 9,9 9,7 16 9 22 12 S 45 60 0,0
17.10.2017 15:00:00 19,8 10,6 20,0 13,1 9,9 9,7 18 10 27 14 S 45 60 0,0
17.10.2017 14:00:00 20,5 9,9 20,3 11,6 9,9 9,7 12 7 18 10 S 45 60 0,0
17.10.2017 13:00:00 19,2 10,2 18,9 10,2 9,9 9,7 14 7 26 14 SSW 45 60 0,0
17.10.2017 12:00:00 18,4 9,2 15,5 9,3 9,9 9,7 16 9 26 14 SSW 45 60 0,0
17.10.2017 11:00:00 17,4 7,9 14,2 8,8 10,0 9,7 19 10 29 16 SSW 45 60 0,0
17.10.2017 10:00:00 16,1 6,5 13,7 8,2 10,1 9,7 19 11 32 17 SW 45 60 0,0
17.10.2017 09:00:00 13,6 5,9 11,5 8,0 10,2 9,7 21 11 31 17 SSW 40 54 0,0
17.10.2017 08:00:00 12,6 4,5 10,2 8,1 10,2 9,7 22 12 29 16 SW 40 0 0,0
17.10.2017 07:00:00 12,5 5,4 10,2 8,2 10,3 9,7 23 12 29 16 SSW 40 0 0,0
17.10.2017 06:00:00 12,6 5,5 10,6 8,3 10,4 9,7 22 12 28 15 SSW 40 0 0,0
17.10.2017 05:00:00 12,2 6,0 9,6 8,5 10,5 9,7 17 9 27 14 SSW 40 0 0,0
17.10.2017 04:00:00 13,6 6,0 10,7 8,7 10,5 9,7 22 12 38 20 SSW 40 0 0,0
17.10.2017 03:00:00 13,8 5,1 7,7 9,0 10,6 9,7 28 15 35 19 S 45 0 0,0
17.10.2017 02:00:00 13,3 5,9 8,0 9,4 10,6 9,7 23 12 30 16 S 40 0 0,0
17.10.2017 01:00:00 13,4 6,4 8,1 9,8 10,6 9,7 24 13 29 16 S 40 0 0,0
17.10.2017 00:00:00 13,3 7,1 8,8 10,3 10,7 9,7 23 13 28 15 S 35 0 0,0
16.10.2017 23:00:00 13,3 8,3 10,0 10,7 10,6 9,7 21 11 27 15 S 35 0 0,0
16.10.2017 22:00:00 13,5 9,1 10,0 11,1 10,6 9,7 17 9 21 12 S 30 0 0,0
16.10.2017 21:00:00 13,3 9,0 10,6 11,6 10,5 9,7 14 7 22 12 S 35 0 0,0
16.10.2017 20:00:00 13,9 7,6 11,4 12,2 10,4 9,7 14 8 19 10 S 45 0 0,0
16.10.2017 19:00:00 14,0 4,2 12,3 13,0 10,3 9,7 15 8 22 12 SSW 40 0 0,0
16.10.2017 18:00:00 15,1 6,6 13,2 13,6 10,1 9,7 15 8 20 11 SSW 40 40 0,0
16.10.2017 17:00:00 18,0 8,8 16,3 13,7 10,0 9,7 17 9 21 12 SW 50 52 0,0
16.10.2017 16:00:00 18,7 9,1 19,1 13,5 9,9 9,7 15 8 21 11 SSW 60 60 0,0
16.10.2017 15:00:00 19,4 8,2 19,1 12,8 9,9 9,7 15 8 26 14 SW 40 60 0,0
16.10.2017 14:00:00 19,5 9,3 19,7 11,7 9,9 9,7 18 10 28 15 SW 35 60 0,0
16.10.2017 13:00:00 18,8 8,6 18,8 10,5 9,9 9,7 20 11 30 16 SW 35 60 0,0
16.10.2017 12:00:00 17,8 8,6 15,8 9,6 9,9 9,7 19 10 33 18 SW 35 60 0,0
16.10.2017 11:00:00 16,5 8,4 14,1 9,0 10,0 9,7 19 10 28 15 SSW 30 60 0,0
16.10.2017 10:00:00 13,6 9,7 11,8 8,3 10,1 9,7 23 12 29 16 SW 25 60 0,0
16.10.2017 09:00:00 11,7 9,3 9,0 8,2 10,1 9,7 16 9 25 14 SW 20 53 0,0
16.10.2017 08:00:00 10,1 8,7 8,0 8,3 10,2 9,7 19 10 32 18 SW 15 0 0,0
16.10.2017 07:00:00 10,1 8,7 8,4 8,5 10,3 9,7 21 11 26 14 SW 20 0 0,0
16.10.2017 06:00:00 10,2 8,4 7,7 8,7 10,3 9,7 19 10 28 15 SW 20 0 0,0
16.10.2017 05:00:00 10,9 8,2 9,1 8,9 10,4 9,7 23 13 34 18 SW 25 0 0,0
16.10.2017 04:00:00 11,5 8,6 9,1 9,1 10,5 9,7 26 14 32 18 SW 30 0 0,0
16.10.2017 03:00:00 12,1 7,6 9,6 9,3 10,5 9,7 22 12 35 19 SW 35 0 0,0
16.10.2017 02:00:00 12,8 6,9 10,9 9,5 10,6 9,7 29 16 38 21 SW 40 0 0,0
16.10.2017 01:00:00 12,6 6,2 10,7 9,8 10,6 9,7 27 14 34 18 SSW 40 0 0,0
16.10.2017 00:00:00 12,7 5,6 10,8 10,1 10,6 9,7 27 14 36 20 SW 40 0 0,0
15.10.2017 23:00:00 12,7 6,6 9,2 10,5 10,6 9,7 28 15 35 19 SSW 40 0 0,0
15.10.2017 22:00:00 12,9 9,1 9,8 11,0 10,5 9,7 29 16 42 23 S 35 0 0,0
15.10.2017 21:00:00 12,4 8,6 9,8 11,6 10,5 9,7 34 18 42 23 S 35 0 0,0
15.10.2017 20:00:00 12,1 8,5 8,3 12,4 10,3 9,7 26 14 35 19 S 35 0 0,0
15.10.2017 19:00:00 12,4 8,5 9,1 13,3 10,2 9,7 25 13 29 16 S 30 4 0,0
15.10.2017 18:00:00 14,1 9,3 11,6 14,0 10,0 9,7 26 14 29 15 S 45 56 0,0
15.10.2017 17:00:00 16,3 9,7 14,8 14,3 9,9 9,7 23 12 29 16 S 45 47 0,0
15.10.2017 16:00:00 17,6 11,0 18,4 14,1 9,8 9,7 25 13 31 17 S 45 60 0,0
15.10.2017 15:00:00 18,5 11,5 18,6 13,2 9,7 9,7 24 13 31 17 S 45 60 0,0
15.10.2017 14:00:00 18,5 12,3 18,8 11,8 9,7 9,7 23 12 31 17 S 40 60 0,0
15.10.2017 13:00:00 17,8 11,2 18,4 10,2 9,7 9,7 24 13 29 16 S 35 60 0,0
15.10.2017 12:00:00 17,3 11,1 14,5 9,0 9,8 9,7 18 10 29 16 S 35 60 0,0
15.10.2017 11:00:00 16,4 10,9 12,0 8,4 9,9 9,7 23 12 29 16 S 35 60 0,0
15.10.2017 10:00:00 14,5 10,3 11,0 7,7 10,0 9,7 26 14 32 17 S 30 60 0,0
15.10.2017 09:00:00 12,3 9,7 8,3 7,7 10,1 9,7 23 12 29 15 S 30 60 0,0
15.10.2017 08:00:00 10,7 8,8 6,8 7,9 10,2 9,7 27 14 30 16 S 30 3 0,0
15.10.2017 07:00:00 10,6 8,8 7,2 8,2 10,3 9,7 22 12 26 14 S 30 0 0,0
15.10.2017 06:00:00 10,7 8,9 8,0 8,4 10,3 9,7 19 11 26 14 S 30 0 0,0
15.10.2017 05:00:00 10,8 9,0 7,6 8,7 10,4 9,7 19 10 27 14 S 35 0 0,0
15.10.2017 04:00:00 10,5 8,7 7,2 9,0 10,5 9,7 16 9 21 12 SSE 40 0 0,0
15.10.2017 03:00:00 10,8 8,7 7,3 9,3 10,5 9,7 16 8 21 11 S 55 0 0,0
15.10.2017 02:00:00 11,0 9,2 7,9 9,7 10,6 9,7 11 6 16 9 SSE 60 0 0,0
15.10.2017 01:00:00 11,1 9,3 8,2 10,0 10,6 9,7 9 5 17 9 S 65 0 0,0
15.10.2017 00:00:00 11,5 9,8 8,2 10,4 10,6 9,7 11 6 - - S 60 0 0,0
14.10.2017 23:00:00 11,2 10,1 8,7 10,9 10,6 9,8 7 4 - - SSE 60 0 0,0
14.10.2017 22:00:00 11,4 10,4 9,0 11,5 10,6 9,8 7 4 - - SW 55 0 0,0
14.10.2017 21:00:00 11,3 10,5 8,2 12,1 10,5 9,8 7 4 9 5 SW 50 0 0,0
14.10.2017 20:00:00 11,3 10,3 7,9 12,9 10,4 9,8 7 4 10 6 SSW 50 0 0,0
14.10.2017 19:00:00 11,6 10,1 10,3 13,6 10,2 9,8 9 5 12 6 SSW 50 7 0,0
14.10.2017 18:00:00 14,6 11,2 12,3 14,3 10,0 9,8 8 4 15 8 WSW 60 59 0,0
14.10.2017 17:00:00 16,7 11,7 14,9 14,6 9,9 9,8 9 5 19 10 SW 60 47 0,0
14.10.2017 16:00:00 16,6 11,5 17,4 14,5 9,8 9,8 13 7 19 10 SW 60 59 0,0
14.10.2017 15:00:00 16,2 11,0 17,3 13,9 9,7 9,8 10 6 18 10 WSW 60 57 0,0
14.10.2017 14:00:00 15,9 11,4 16,5 12,8 9,6 9,8 11 6 19 10 WSW 60 57 0,0
14.10.2017 13:00:00 15,8 11,8 17,4 11,6 9,6 9,8 14 8 22 12 SW 55 46 0,0
14.10.2017 12:00:00 12,8 11,0 12,4 11,1 9,6 9,8 13 7 22 12 SW 35 25 0,0
14.10.2017 11:00:00 12,5 11,2 12,7 10,6 9,5 9,8 14 8 23 13 SSW 15 14 0,0
14.10.2017 10:00:00 11,4 10,8 11,7 10,1 9,5 9,8 20 11 27 15 WSW 0,1 0 0,0
14.10.2017 09:00:00 10,9 10,4 10,9 9,8 9,5 9,8 17 9 25 14 WSW 0,1 0 0,0
14.10.2017 08:00:00 10,3 9,6 9,6 9,9 9,5 9,8 18 10 27 14 W 55 0 0,0
14.10.2017 07:00:00 10,3 9,4 9,9 10,0 9,5 9,8 17 9 23 13 W 60 0 0,0
14.10.2017 06:00:00 10,2 9,4 9,8 10,0 9,5 9,8 15 8 26 14 W 30 0 0,0
14.10.2017 05:00:00 10,5 10,1 10,3 10,0 9,5 9,8 16 8 25 13 W 0,1 0 0,0
14.10.2017 04:00:00 10,6 10,2 10,4 10,0 9,4 9,8 14 7 25 14 W 0,1 0 0,0
14.10.2017 03:00:00 10,6 10,2 10,5 10,0 9,4 9,8 15 8 28 15 W 0,1 0 0,0
14.10.2017 02:00:00 10,7 10,3 10,5 10,0 9,4 9,8 21 11 29 16 WSW 0,1 0 0,0
14.10.2017 01:00:00 10,7 10,3 10,5 10,0 9,4 9,8 21 11 32 17 WSW 0,1 0 0,0
14.10.2017 00:00:00 10,7 10,3 10,5 10,0 9,3 9,8 21 11 29 15 WSW 0,2 0 0,0
13.10.2017 23:00:00 9,8 9,1 9,0 10,2 9,3 9,8 14 8 26 14 W 15 0 0,0
13.10.2017 22:00:00 10,9 10,5 10,8 10,2 9,2 9,8 19 10 31 17 W 0,1 0 0,0
13.10.2017 21:00:00 11,0 10,6 10,8 10,2 9,2 9,8 19 10 28 15 WSW 0,1 0 0,0
13.10.2017 20:00:00 10,7 10,3 10,5 10,2 9,1 9,8 19 11 31 17 W 0,1 0 0,0
13.10.2017 19:00:00 10,7 10,3 10,6 10,3 9,1 9,8 23 12 34 18 WSW 0,1 0 0,0
13.10.2017 18:00:00 10,6 10,2 10,5 10,3 9,0 9,8 20 11 34 18 WSW 0,2 0 0,0
13.10.2017 17:00:00 10,5 10,1 10,5 10,3 9,0 9,8 21 11 34 18 WSW 0,1 0 0,0
13.10.2017 16:00:00 10,0 9,6 10,1 10,2 8,9 9,8 21 11 36 19 W 0,1 0 0,0
13.10.2017 15:00:00 10,2 9,8 10,3 10,1 8,9 9,8 22 12 32 17 W 0,1 0 0,0
13.10.2017 14:00:00 10,1 9,4 10,4 9,7 8,8 9,8 21 11 37 20 WSW 0,1 0 0,0
13.10.2017 13:00:00 9,9 9,4 10,2 9,3 8,8 9,8 29 16 37 20 WSW 0,1 0 0,0
13.10.2017 12:00:00 9,2 8,7 9,3 9,0 8,8 9,8 24 13 36 20 WSW 0,1 0 0,0
13.10.2017 11:00:00 9,0 8,5 9,4 8,7 8,8 9,8 15 8 24 13 WSW 0,1 0 0,0
13.10.2017 10:00:00 8,4 7,7 8,8 8,3 8,8 9,8 17 9 26 14 W 0,8 0 0,0
13.10.2017 09:00:00 8,1 7,7 8,2 8,1 8,8 9,8 17 9 36 20 W 0,1 0 0,0
13.10.2017 08:00:00 8,6 8,2 8,5 8,0 8,9 9,8 23 13 39 21 WSW 0,1 0 0,0
13.10.2017 07:00:00 8,9 8,5 8,7 7,8 8,9 9,9 27 14 43 23 W 0,1 0 0,0
13.10.2017 06:00:00 8,6 8,2 8,4 7,6 9,0 9,9 28 15 38 20 WSW 0,1 0 0,0
13.10.2017 05:00:00 7,8 7,4 7,6 7,5 9,0 9,9 27 14 39 21 WSW 0,5 0 0,0
13.10.2017 04:00:00 7,9 7,5 7,7 7,3 9,1 9,9 22 12 43 23 W 0,1 0 0,0
13.10.2017 03:00:00 7,2 6,7 7,0 7,4 9,1 9,9 24 13 35 19 WSW 0,4 0 0,0
13.10.2017 02:00:00 7,4 5,4 6,6 7,5 9,2 9,9 21 11 34 18 W 50 0 0,0
13.10.2017 01:00:00 7,5 5,1 6,8 7,7 9,2 9,9 16 9 31 17 W 50 0 0,0
13.10.2017 00:00:00 7,6 5,0 6,8 7,9 9,3 9,9 19 10 27 15 W 50 0 0,0
12.10.2017 23:00:00 7,5 5,0 6,9 8,2 9,3 9,9 18 10 30 16 WNW 50 0 0,0
12.10.2017 22:00:00 7,7 4,9 6,8 8,5 9,3 9,9 18 10 31 17 WNW 55 0 0,0
12.10.2017 21:00:00 8,1 5,1 7,1 8,9 9,3 9,9 20 11 37 20 W 55 0 0,0
12.10.2017 20:00:00 8,1 5,1 7,2 9,5 9,2 9,9 24 13 36 19 W 70 0 0,0
12.10.2017 19:00:00 7,9 5,3 6,8 10,1 9,1 9,9 22 12 41 22 W 70 2 0,0
12.10.2017 18:00:00 9,1 5,7 8,1 10,7 9,0 9,9 24 13 41 22 W 80 37 0,0
12.10.2017 17:00:00 10,3 5,5 9,9 11,1 9,0 9,9 24 13 45 24 W 80 42 0,0
12.10.2017 16:00:00 10,9 4,8 11,0 11,2 8,9 9,9 29 16 56 30 W 80 60 0,0

tt = Température de l'air
td = dewpoint
tt 5cm = Température de l'air 5cm
tt -5cm = Température de l'air -5cm
tt -20cm = Température de l'air -20cm
tt -100cm = Température de l'air -100cm
ff = Vitesse du vent
fx = gusts
dd = Direction du vent
vv = visibility
sd = Ensoleillement
rr = Quantités de précipitations

stations d'obs. à proximité